• Join FlightAware (Why Join?)
  • Login
  • US Flag GB Flag 
03:49 EDT


 

Airport Tracker/Info


-or-


 

Live Flight TrackerFlight Track Log ✈ BJS542 ✈ 30-Jun-2013 ✈ KSBD - KMKC

Flight Track Log - Related Links

Times and Time Zones

All times are in EDT time to prevent confusion due to time zone crossing. See the BJS542 flight status page for this flight to view local times or setup timezone preferences in your user account.

Time Position Orientation Groundspeed Altitude Reporting Facility
EDT Latitude Longitude Course Direction KTS MPH feet Rate Location/Type
15:55 34.0667 -117.3000 29° Northeast 214 246 4,500  Level Southern California TRACON
15:56 34.0500 -117.3667 253° West 248 285 8,200 3,000 Climbing Southern California TRACON
15:57 34.1167 -117.4167 328° Northwest 275 316 10,900 1,500 Climbing Southern California TRACON
15:58 34.2000 -117.3667 26° Northeast 360 414 11,100 60 Climbing Southern California TRACON
15:59 34.3011 -117.2997 29° Northeast 372 428 11,100 60 Level Los Angeles Center
16:00 34.2945 -117.2925 29° Northeast  Level FlightAware Approximate
16:00 34.3961 -117.2414 27° Northeast 371 427 11,300  Level Los Angeles Center
16:02 34.5667 -117.1200 30° Northeast 362 417 17,400 2,940 Climbing Los Angeles Center
16:03 34.6386 -117.0325 45° Northeast 367 422 20,500 2,220 Climbing Los Angeles Center
16:05 34.7016 -116.8286 59° Northeast  Level Estimated
16:05 34.8217 -116.7983 59° Northeast 417 480 24,900  Level Los Angeles Center
16:06 34.9025 -116.6958 46° Northeast 423 487 27,400 1,980 Climbing Los Angeles Center
16:07 34.9681 -116.6133 46° Northeast 423 487 29,000 1,500 Climbing Los Angeles Center
16:08 35.0689 -116.4814 47° Northeast 437 503 30,600 1,440 Climbing Los Angeles Center
16:09 35.1569 -116.3672 47° Northeast 455 524 32,100 1,500 Climbing Los Angeles Center
16:11 35.2658 -116.2292 46° Northeast 470 541 34,100 1,800 Climbing Los Angeles Center
16:12 35.3722 -116.0883 47° Northeast 472 543 36,200 1,560 Climbing Los Angeles Center
16:13 35.4436 -115.9961 46° Northeast 471 542 37,400 1,800 Climbing Los Angeles Center
16:14 35.5519 -115.8564 46° Northeast 458 527 40,000 1,680 Climbing Los Angeles Center
16:15 35.6356 -115.7458 47° Northeast 446 513 41,000 480 Climbing Los Angeles Center
16:16 35.7397 -115.6100 47° Northeast 456 525 41,000  Level Los Angeles Center
16:17 35.8261 -115.4956 47° Northeast 459 528 41,000  Level Los Angeles Center
16:18 35.9133 -115.3794 47° Northeast 464 534 41,000  Level Los Angeles Center
16:19 35.9831 -115.2886 46° Northeast 462 532 41,000  Level Los Angeles Center
16:20 36.0803 -115.1447 50° Northeast 460 529 41,000  Level Los Angeles Center
16:21 36.1381 -114.9658 68° East 468 539 41,000  Level Los Angeles Center
16:22 36.1847 -114.8194 68° East 462 532 41,000  Level Los Angeles Center
16:23 36.2297 -114.6733 69° East 458 527 41,000  Level Los Angeles Center
16:24 36.2742 -114.5272 69° East 456 525 41,000  Level Los Angeles Center
16:25 36.3269 -114.3522 69° East 454 522 41,000  Level Los Angeles Center
16:26 36.3631 -114.2358 69° East 454 522 41,000  Level Los Angeles Center
16:27 36.4244 -114.0328 69° East 451 519 41,000  Level Los Angeles Center
16:28 36.4686 -113.8869 69° East 452 520 41,000  Level Los Angeles Center
16:30 36.5131 -113.7308 70° East 450 518 41,000  Level Los Angeles Center
16:31 36.5567 -113.5864 69° East 449 517 41,000  Level Los Angeles Center
16:32 36.6089 -113.4125 69° East 449 517 41,000  Level Los Angeles Center
16:33 36.6508 -113.2669 70° East 448 516 41,000  Level Los Angeles Center
16:34 36.6936 -113.1217 70° East 449 517 41,000  Level Los Angeles Center
16:35 36.7436 -112.9475 70° East 447 514 41,000  Level Los Angeles Center
16:36 36.7869 -112.8028 69° East 448 516 41,000  Level Los Angeles Center
16:38 36.8717 -112.5111 70° East 449 517 41,000  Level Los Angeles Center
16:39 36.9139 -112.3661 70° East 448 516 41,000  Level Los Angeles Center
16:40 36.9639 -112.1919 70° East 446 513 41,000  Level Los Angeles Center
16:41 37.0050 -112.0450 71° East 449 517 41,000  Level Los Angeles Center
16:42 37.0389 -111.9281 70° East 450 518 41,000  Level Los Angeles Center
16:43 37.0881 -111.7539 70° East 447 514 41,000  Level Los Angeles Center
16:44 37.1281 -111.6086 71° East 445 512 41,000  Level Los Angeles Center
16:45 37.1764 -111.4322 71° East 446 513 41,000  Level Los Angeles Center
16:46 37.2133 -111.2894 72° East 442 509 41,000  Level Denver Center
16:48 37.2622 -111.1080 71° East  Level FlightAware Approximate
16:48 37.2933 -110.9950 71° East 447 514 41,000  Level Denver Center
16:49 37.3350 -110.8464 71° East 452 520 41,000  Level Denver Center
16:50 37.3744 -110.6981 71° East 450 518 41,000  Level Denver Center
16:51 37.4217 -110.5197 72° East 450 518 41,000  Level Denver Center
16:53 37.4583 -110.3714 73° East 448 516 41,000  Level Denver Center
16:54 37.4958 -110.2314 71° East 447 514 41,000  Level Denver Center
16:55 37.5414 -110.0617 71° East 454 522 41,000  Level Denver Center
16:56 37.5778 -109.9167 72° East 454 522 41,000  Level Denver Center
16:57 37.6222 -109.7461 72° East 457 526 41,000  Level Denver Center
16:58 37.6658 -109.5742 72° East 461 531 41,000  Level Denver Center
16:59 37.7103 -109.4022 72° East 461 531 41,000  Level Denver Center
17:00 37.7408 -109.2786 73° East 461 531 41,000  Level Denver Center
17:01 37.7842 -109.1056 72° East 460 529 41,000  Level Denver Center
17:02 37.8281 -108.9311 72° East 464 534 41,000  Level Denver Center
17:03 37.8703 -108.7583 73° East 460 529 41,000  Level Denver Center
17:04 37.9072 -108.6097 72° East 460 529 41,000  Level Denver Center
17:05 37.9497 -108.4342 73° East 465 535 41,000  Level Denver Center
17:06 37.9861 -108.2861 73° East 461 531 41,000  Level Denver Center
17:07 38.0158 -108.1606 73° East 463 533 41,000  Level Denver Center
17:08 38.0633 -107.9608 73° East 463 533 41,000  Level Denver Center
17:09 38.1031 -107.7956 73° East 461 531 41,000 120 Level Denver Center
17:10 38.1386 -107.6464 73° East 463 533 41,300 720 Climbing Denver Center
17:11 38.1781 -107.4756 74° East 456 525 42,600 900 Climbing Denver Center
17:12 38.2075 -107.3528 73° East 454 522 43,200 720 Climbing Denver Center
17:14 38.2407 -107.1688 77° East  Level FlightAware Approximate
17:14 38.2881 -107.0022 77° East 452 520 45,000  Level Denver Center
17:15 38.3225 -106.8483 74° East 455 524 45,000  Level Denver Center
17:16 38.3331 -106.6792 85° East 468 539 45,000  Level Denver Center
17:17 38.3444 -106.5219 85° East 466 536 45,000  Level Denver Center
17:19 38.3481 -106.3567 88° East 463 533 45,000  Level Denver Center
17:20 38.3461 -106.1303 91° East 459 528 45,000  Level Denver Center
17:21 38.3367 -105.9742 94° East 460 529 45,000  Level Denver Center
17:22 38.3272 -105.8178 94° East 463 533 45,000  Level Denver Center
17:23 38.3186 -105.6328 93° East 467 537 45,000  Level Denver Center
17:24 38.3122 -105.4756 93° East 465 535 45,000  Level Denver Center
17:25 38.3172 -105.2933 88° East 459 528 45,000  Level Denver Center
17:26 38.3544 -105.1281 74° East 460 529 45,000  Level Denver Center
17:27 38.3936 -104.9728 72° East 462 532 45,000  Level Denver Center
17:28 38.4319 -104.8150 73° East 466 536 45,000  Level Denver Center
17:29 38.4711 -104.6547 73° East 474 545 45,100  Climbing Denver Center
17:30 38.5108 -104.4936 72° East 478 550 45,000 -60 Descending Denver Center
17:31 38.5592 -104.3011 72° East 477 549 45,000  Level Denver Center
17:32 38.5969 -104.1461 73° East 464 534 45,000  Level Denver Center
17:33 38.6322 -103.9958 73° East 464 534 45,000  Level Denver Center
17:34 38.6756 -103.8136 73° East 477 549 45,000  Level Denver Center
17:35 38.7133 -103.6558 73° East 482 555 45,000  Level Denver Center
17:36 38.7558 -103.4747 73° East 477 549 45,000  Level Denver Center
17:37 38.7944 -103.3064 74° East 478 550 45,000  Level Denver Center
17:38 38.8322 -103.1453 73° East 475 547 45,000  Level Denver Center
17:39 38.8697 -102.9825 73° East 478 550 45,000  Level Denver Center
17:40 38.9072 -102.8217 73° East 474 545 45,000  Level Denver Center
17:41 38.9464 -102.6486 74° East 472 543 45,000  Level Denver Center
17:42 38.9864 -102.4697 74° East 468 539 45,000  Level Denver Center
17:43 39.0208 -102.3147 74° East 468 539 45,000  Level Denver Center
17:45 39.0547 -102.1611 74° East 468 539 45,000  Level Denver Center
17:46 39.0947 -101.9797 74° East 471 542 45,000  Level Denver Center
17:47 39.1292 -101.8239 74° East 472 543 45,000  Level Denver Center
17:49 39.2008 -101.4894 74° East 476 548 45,000  Level Denver Center
17:50 39.2403 -101.3072 74° East 475 547 45,000  Level Denver Center
17:51 39.2739 -101.1500 75° East 474 545 45,000  Level Denver Center
17:52 39.3133 -100.9653 75° East 479 551 45,000  Level Denver Center
17:53 39.3464 -100.8072 75° East 479 551 45,000  Level Denver Center
17:54 39.3842 -100.6233 75° East 476 548 45,000  Level Denver Center
17:55 39.4214 -100.4394 75° East 476 548 45,000  Level Denver Center
17:56 39.4592 -100.2564 75° East 472 543 45,000  Level Denver Center
17:57 39.4900 -100.0983 76° East 473 544 45,000  Level Denver Center
17:58 39.5261 -99.9200 75° East 470 541 45,000  Level Denver Center
17:59 39.5589 -99.7556 75° East 472 543 45,000  Level Denver Center
18:00 39.5911 -99.5919 76° East 469 540 45,000  Level Denver Center
18:01 39.6297 -99.3919 76° East 476 548 45,000  Level Denver Center
18:02 39.6686 -99.1908 76° East 479 551 45,000  Level Denver Center
18:03 39.6944 -99.0583 76° East 478 550 45,000  Level Denver Center
18:05 39.7322 -98.8600 76° East 473 544 45,000  Level Denver Center
18:05 39.7561 -98.7294 77° East 473 544 45,000 -240 Level Minneapolis Center
18:06 39.7875 -98.5644 76° East 472 543 44,600 -720 Descending Minneapolis Center
18:07 39.8169 -98.4028 77° East 466 536 43,600 -1,080 Descending Minneapolis Center
18:08 39.8531 -98.2083 76° East 463 533 42,400 -1,080 Descending Minneapolis Center
18:09 39.8836 -98.0422 76° East 471 542 41,400 -1,140 Descending Minneapolis Center
18:11 39.9122 -97.8786 77° East 468 539 39,900 -1,500 Descending Minneapolis Center
18:12 39.9458 -97.6903 77° East 452 520 38,100 -1,620 Descending Minneapolis Center
18:13 39.9739 -97.5322 77° East 450 518 36,600 -1,500 Descending Minneapolis Center
18:14 40.0031 -97.3656 77° East 464 534 35,100 -1,500 Descending Minneapolis Center
18:15 40.0364 -97.1803 77° East 473 544 33,500 -1,500 Descending Minneapolis Center
18:16 40.0644 -97.0114 78° East 476 548 32,000 -1,560 Descending Minneapolis Center
18:17 40.0936 -96.8456 77° East 473 544 30,300 -2,040 Descending Minneapolis Center
18:18 40.1264 -96.6447 78° East 472 543 27,800 -1,980 Descending Minneapolis Center
18:19 40.1542 -96.4814 77° East 467 537 25,800 -1,680 Descending Minneapolis Center
18:20 40.1797 -96.3283 78° East 443 510 24,100 -1,620 Descending Minneapolis Center
18:21 40.1783 -96.1558 91° East 417 480 22,500 -1,440 Descending Minneapolis Center
18:23 40.1169 -96.0167 120° Southeast 437 503 20,900 -1,680 Descending Minneapolis Center
18:23 40.0656 -95.9031 121° Southeast 441 507 19,600 -1,260 Descending Kansas City Center
18:24 40.0075 -95.7717 120° Southeast 438 504 19,000 -300 Descending Kansas City Center
18:25 39.9442 -95.6292 120° Southeast 415 478 19,000  Level Kansas City Center
18:26 39.8892 -95.5128 122° Southeast 398 458 19,000 -300 Level Kansas City Center
18:27 39.8292 -95.4006 125° Southeast 398 458 18,500 -1,500 Descending Kansas City Center
18:28 39.7294 -95.2983 142° Southeast 407 468 16,000 -2,220 Descending Kansas City Center
18:29 39.6467 -95.2100 141° Southeast 403 464 14,000 -1,980 Descending Kansas City Center
18:30 39.5561 -95.1153 141° Southeast 365 420 12,000 -1,140 Descending Kansas City Center
18:31 39.4869 -95.0525 145° Southeast 319 367 11,700 -1,260 Descending Kansas City Center
18:32 39.4031 -94.9931 151° Southeast 304 350 9,500 -1,920 Descending Kansas City Center
18:33 39.3356 -94.9436 150° Southeast 291 335 7,800 -1,560 Descending Kansas City Center
18:34 39.2711 -94.8989 152° Southeast 275 316 6,300 -900 Descending Kansas City Center
18:36 39.1064 -94.9100 183° South 284 327 5,100 -480 Descending Kansas City Center
18:37 39.0375 -94.8922 169° South 234 269 4,900 -660 Descending Kansas City Center
18:38 39.0286 -94.8039 97° East 261 300 3,800 -1,080 Descending Kansas City Center
18:40 39.0264 -94.7233 92° East 236 272 2,800 -660 Descending Kansas City Center
18:41 39.0667 -94.6167 64° Northeast 148 170 2,000 -600 Descending Kansas City TRACON
18:42 39.1000 -94.6000 21° North 110 127 1,300 -780 Descending Kansas City TRACON